Time;durP1;ratioP1;P1;durP2;ratioP2;P2;SDS_P1;SDS_P2;PMS_P1;PMS_P2;Temp;Humidity;BMP_temperature;BMP_pressure;BME280_temperature;BME280_humidity;BME280_pressure;Samples;Min_cycle;Max_cycle;Signal;HPM_P1;HPM_P2
2022/09/08 00:00:13;;;;;;;;;;;17.40;99.90;;;;;;5030818;28;20339;-68
2022/09/08 00:02:39;;;;;;;;;;;17.50;99.90;;;;;;5030860;28;19920;-68
2022/09/08 00:05:07;;;;;;;;;;;17.50;99.90;;;;;;5030700;28;19910;-68
2022/09/08 00:07:35;;;;;;;;;;;17.60;99.90;;;;;;5030715;28;20279;-68
2022/09/08 00:10:03;;;;;;;;;;;17.70;99.90;;;;;;5030400;28;19936;-67
2022/09/08 00:12:30;;;;;;;;;;;17.70;99.90;;;;;;5030730;28;19992;-69
2022/09/08 00:14:58;;;;;;;;;;;17.80;99.90;;;;;;5030023;28;19909;-68
2022/09/08 00:17:25;;;;;;;;;;;17.70;99.90;;;;;;5030693;28;19910;-68
2022/09/08 00:19:51;;;;;;;;;;;17.70;99.90;;;;;;5030491;28;19956;-69
2022/09/08 00:22:18;;;;;;;;;;;17.80;99.90;;;;;;5030736;28;19913;-67
2022/09/08 00:24:45;;;;;;;;;;;17.70;99.90;;;;;;5030136;28;19909;-69
2022/09/08 00:27:11;;;;;;;;;;;17.60;99.90;;;;;;5062333;28;19936;-68
2022/09/08 00:29:38;;;;;;;;;;;17.60;99.90;;;;;;5030034;28;19921;-66
2022/09/08 00:32:05;;;;;;;;;;;17.40;99.90;;;;;;5030230;28;19909;-70
2022/09/08 00:34:33;;;;;;;;;;;17.30;99.90;;;;;;5030030;28;19956;-69
2022/09/08 00:37:00;;;;;;;;;;;17.40;99.90;;;;;;5030342;28;19952;-71
2022/09/08 00:39:27;;;;;;;;;;;17.50;99.90;;;;;;5030382;28;19976;-68
2022/09/08 00:41:55;;;;;;;;;;;17.60;99.90;;;;;;5030089;28;19917;-67
2022/09/08 00:44:39;;;;;;;;;;;17.70;99.90;;;;;;5029765;28;19917;-68
2022/09/08 00:47:10;;;;;;;;;;;17.70;99.90;;;;;;5030195;28;19965;-68
2022/09/08 00:49:38;;;;;;;;;;;17.60;99.90;;;;;;5030077;28;19921;-68
2022/09/08 00:52:05;;;;;;;;;;;17.60;99.90;;;;;;5030129;28;19910;-70
2022/09/08 00:54:31;;;;;;;;;;;17.60;99.90;;;;;;5029764;28;20091;-68
2022/09/08 00:56:58;;;;;;;;;;;17.70;99.90;;;;;;5030117;28;19916;-67
2022/09/08 00:59:26;;;;;;;;;;;17.80;99.90;;;;;;5028622;28;19914;-68
2022/09/08 01:01:53;;;;;;;;;;;18.00;99.90;;;;;;5029698;28;19913;-67
2022/09/08 01:04:20;;;;;;;;;;;18.00;99.90;;;;;;5029595;28;19913;-67
2022/09/08 01:12:45;;;;;;;;;;;18.70;99.90;;;;;;5029989;28;20008;-67
2022/09/08 01:15:18;;;;;;;;;;;19.00;99.90;;;;;;5029801;28;19920;-66
2022/09/08 01:17:47;;;;;;;;;;;19.30;99.90;;;;;;5029633;28;20310;-66
2022/09/08 01:20:15;;;;;;;;;;;19.50;99.90;;;;;;5029791;28;19913;-71
2022/09/08 01:23:11;;;;;;;;;;;19.70;99.90;;;;;;5029441;28;19913;-67
2022/09/08 01:25:56;;;;;;;;;;;20.10;99.90;;;;;;4976031;28;19911;-69
2022/09/08 01:28:44;;;;;;;;;;;20.40;99.90;;;;;;5029603;28;19920;-67
2022/09/08 01:31:12;;;;;;;;;;;19.90;99.90;;;;;;5029592;28;20287;-69
2022/09/08 01:33:40;;;;;;;;;;;19.40;99.90;;;;;;5028879;28;19909;-68
2022/09/08 01:36:07;;;;;;;;;;;19.10;99.90;;;;;;5029587;28;19940;-70
2022/09/08 01:38:34;;;;;;;;;;;18.90;99.90;;;;;;5029576;28;19913;-68
2022/09/08 01:41:01;;;;;;;;;;;19.10;99.90;;;;;;5029655;28;19913;-68
2022/09/08 01:43:27;;;;;;;;;;;19.00;99.90;;;;;;5028979;28;19909;-69
2022/09/08 01:45:56;;;;;;;;;;;18.90;99.90;;;;;;5029174;28;20385;-69
2022/09/08 01:48:23;;;;;;;;;;;18.90;99.90;;;;;;5029367;28;19917;-69
2022/09/08 01:50:50;;;;;;;;;;;18.80;99.90;;;;;;5028968;28;19921;-68
2022/09/08 01:53:19;;;;;;;;;;;18.70;99.90;;;;;;5028891;28;19909;-68
2022/09/08 01:55:46;;;;;;;;;;;18.60;99.90;;;;;;5028887;28;19909;-70
2022/09/08 01:58:12;;;;;;;;;;;18.60;99.90;;;;;;5028967;28;19913;-67
2022/09/08 02:00:42;;;;;;;;;;;18.60;99.90;;;;;;5029188;28;20280;-67
2022/09/08 02:03:10;;;;;;;;;;;18.60;99.90;;;;;;5028847;28;20325;-70
2022/09/08 02:05:38;;;;;;;;;;;18.70;99.90;;;;;;5028880;28;19955;-69
2022/09/08 02:08:05;;;;;;;;;;;18.60;99.90;;;;;;5029060;28;19916;-67
2022/09/08 02:10:32;;;;;;;;;;;18.70;99.90;;;;;;5028694;28;19981;-68
2022/09/08 02:12:59;;;;;;;;;;;18.80;99.90;;;;;;5028487;28;19934;-68
2022/09/08 02:15:25;;;;;;;;;;;18.80;99.90;;;;;;5028974;28;19909;-69
2022/09/08 02:17:52;;;;;;;;;;;18.70;99.90;;;;;;5029007;28;19917;-71
2022/09/08 02:20:20;;;;;;;;;;;18.70;99.90;;;;;;5032398;28;19932;-68
2022/09/08 02:22:47;;;;;;;;;;;18.70;99.90;;;;;;5032131;28;19945;-69
2022/09/08 02:25:14;;;;;;;;;;;18.70;99.90;;;;;;5032257;28;20382;-70
2022/09/08 02:27:41;;;;;;;;;;;18.80;99.90;;;;;;5031925;28;20008;-69
2022/09/08 02:30:08;;;;;;;;;;;18.70;99.90;;;;;;5032092;28;20016;-69
2022/09/08 02:32:35;;;;;;;;;;;18.70;99.90;;;;;;5031889;28;20018;-69
2022/09/08 02:35:02;;;;;;;;;;;18.60;99.90;;;;;;5032238;28;19938;-68
2022/09/08 02:37:28;;;;;;;;;;;18.70;99.90;;;;;;5032017;28;20224;-70
2022/09/08 02:39:55;;;;;;;;;;;18.80;99.90;;;;;;5032039;28;19921;-68
2022/09/08 02:42:23;;;;;;;;;;;18.70;99.90;;;;;;5032158;28;20287;-67
2022/09/08 02:44:50;;;;;;;;;;;18.70;99.90;;;;;;5063544;27;19937;-68
2022/09/08 02:47:17;;;;;;;;;;;18.70;99.90;;;;;;5032067;28;19920;-68
2022/09/08 02:49:44;;;;;;;;;;;18.80;99.90;;;;;;5031710;28;19920;-68
2022/09/08 02:52:11;;;;;;;;;;;18.80;99.90;;;;;;5032024;28;19918;-67
2022/09/08 02:54:38;;;;;;;;;;;18.80;99.90;;;;;;5031652;28;19913;-68
2022/09/08 02:57:05;;;;;;;;;;;18.80;99.90;;;;;;5031912;28;19909;-67
2022/09/08 02:59:32;;;;;;;;;;;18.80;99.90;;;;;;5031604;28;19913;-68
2022/09/08 03:01:59;;;;;;;;;;;18.90;99.90;;;;;;5031540;28;19913;-69
2022/09/08 03:04:26;;;;;;;;;;;18.90;99.90;;;;;;5031484;28;19988;-67
2022/09/08 03:06:52;;;;;;;;;;;18.90;99.90;;;;;;5031686;28;19963;-69
2022/09/08 03:09:19;;;;;;;;;;;18.80;99.90;;;;;;5031433;28;19917;-70
2022/09/08 03:11:46;;;;;;;;;;;18.90;99.90;;;;;;5031438;28;20320;-67
2022/09/08 03:14:13;;;;;;;;;;;18.90;99.90;;;;;;5031053;28;19913;-68
2022/09/08 03:16:40;;;;;;;;;;;18.80;99.90;;;;;;5031737;28;19919;-67
2022/09/08 03:19:07;;;;;;;;;;;18.80;99.90;;;;;;5031328;28;20379;-68
2022/09/08 03:21:35;;;;;;;;;;;18.80;99.90;;;;;;5031508;28;19961;-68
2022/09/08 03:24:02;;;;;;;;;;;18.90;99.90;;;;;;5030992;28;19986;-67
2022/09/08 03:26:29;;;;;;;;;;;18.90;99.90;;;;;;5031608;28;20404;-69
2022/09/08 03:28:55;;;;;;;;;;;18.90;99.90;;;;;;5031496;28;20285;-68
2022/09/08 03:31:22;;;;;;;;;;;18.80;99.90;;;;;;5062257;28;19969;-68
2022/09/08 03:33:49;;;;;;;;;;;18.70;99.90;;;;;;5030885;28;19916;-67
2022/09/08 03:36:17;;;;;;;;;;;18.70;99.90;;;;;;5031279;28;19919;-69
2022/09/08 03:38:43;;;;;;;;;;;18.70;99.90;;;;;;5031295;28;19909;-68
2022/09/08 03:41:12;;;;;;;;;;;18.50;99.90;;;;;;5031133;28;19913;-67
2022/09/08 03:43:43;;;;;;;;;;;18.40;99.90;;;;;;5030599;28;19909;-67
2022/09/08 03:46:10;;;;;;;;;;;18.20;99.90;;;;;;5031155;28;19909;-67
2022/09/08 03:48:37;;;;;;;;;;;18.20;99.90;;;;;;5031138;28;19920;-68
2022/09/08 03:51:14;;;;;;;;;;;18.20;99.90;;;;;;5031093;28;19921;-68
2022/09/08 03:53:42;;;;;;;;;;;18.20;99.90;;;;;;5030464;28;19978;-68
2022/09/08 03:56:10;;;;;;;;;;;18.10;99.90;;;;;;5062829;28;20279;-68
2022/09/08 03:58:38;;;;;;;;;;;18.10;99.90;;;;;;5030713;28;19909;-67
2022/09/08 04:01:08;;;;;;;;;;;18.10;99.90;;;;;;5030663;28;20008;-69
2022/09/08 04:03:35;;;;;;;;;;;18.20;99.90;;;;;;5030446;28;19920;-67
2022/09/08 04:06:01;;;;;;;;;;;18.30;99.90;;;;;;5030652;28;19909;-68
2022/09/08 04:08:28;;;;;;;;;;;18.20;99.90;;;;;;5030739;28;19917;-67
2022/09/08 04:10:55;;;;;;;;;;;18.20;99.90;;;;;;5030679;28;19925;-67
2022/09/08 04:13:21;;;;;;;;;;;18.10;99.90;;;;;;5030164;28;20134;-69
2022/09/08 04:15:48;;;;;;;;;;;18.20;99.90;;;;;;5030366;28;20313;-67
2022/09/08 04:18:15;;;;;;;;;;;18.20;99.90;;;;;;5030802;28;19913;-66
2022/09/08 04:20:41;;;;;;;;;;;18.20;99.90;;;;;;5030682;28;20503;-66
2022/09/08 04:23:09;;;;;;;;;;;18.30;99.90;;;;;;5030428;28;20004;-67
2022/09/08 04:25:36;;;;;;;;;;;18.40;99.90;;;;;;5030440;28;19913;-68
2022/09/08 04:28:03;;;;;;;;;;;18.30;99.90;;;;;;5030365;28;19919;-68
2022/09/08 04:30:30;;;;;;;;;;;18.30;99.90;;;;;;5030435;28;19928;-69
2022/09/08 04:32:56;;;;;;;;;;;18.10;99.90;;;;;;5030219;28;19978;-68
2022/09/08 04:35:23;;;;;;;;;;;18.20;99.90;;;;;;5030611;28;19913;-69
2022/09/08 04:37:50;;;;;;;;;;;18.30;99.90;;;;;;5030260;28;19945;-66
2022/09/08 04:40:17;;;;;;;;;;;18.30;99.90;;;;;;5030458;28;19909;-69
2022/09/08 04:42:44;;;;;;;;;;;18.30;99.90;;;;;;5028753;28;19945;-69
2022/09/08 04:45:11;;;;;;;;;;;18.30;99.90;;;;;;5030421;28;20322;-68
2022/09/08 04:47:37;;;;;;;;;;;18.20;99.90;;;;;;5030000;28;19913;-69
2022/09/08 04:50:04;;;;;;;;;;;18.20;99.90;;;;;;5030279;28;19917;-68
2022/09/08 04:52:31;;;;;;;;;;;18.20;99.90;;;;;;5061722;27;19930;-67
2022/09/08 04:54:59;;;;;;;;;;;18.20;99.90;;;;;;5030271;28;19913;-69
2022/09/08 04:57:27;;;;;;;;;;;18.30;99.90;;;;;;5030111;28;20070;-68
2022/09/08 04:59:54;;;;;;;;;;;18.30;99.90;;;;;;5029765;28;19913;-70
2022/09/08 05:02:20;;;;;;;;;;;18.30;99.90;;;;;;5029870;28;19909;-69
2022/09/08 05:04:47;;;;;;;;;;;18.30;99.90;;;;;;5030146;28;19916;-70
2022/09/08 05:07:14;;;;;;;;;;;18.20;99.90;;;;;;5030174;28;20400;-69
2022/09/08 05:09:43;;;;;;;;;;;18.20;99.90;;;;;;5029494;28;19932;-70
2022/09/08 05:12:09;;;;;;;;;;;18.20;99.90;;;;;;5028310;28;19916;-69
2022/09/08 05:14:36;;;;;;;;;;;18.20;99.90;;;;;;5029569;28;19909;-69
2022/09/08 05:17:03;;;;;;;;;;;18.20;99.90;;;;;;5029751;28;19913;-68
2022/09/08 05:19:31;;;;;;;;;;;18.10;99.90;;;;;;5029570;28;19935;-68
2022/09/08 05:21:58;;;;;;;;;;;18.00;99.90;;;;;;5029482;28;19909;-70
2022/09/08 05:24:26;;;;;;;;;;;18.00;99.90;;;;;;5029391;28;19919;-69
2022/09/08 05:26:52;;;;;;;;;;;18.00;99.90;;;;;;5029630;28;19920;-69
2022/09/08 05:29:19;;;;;;;;;;;18.00;99.90;;;;;;5029769;28;19996;-67
2022/09/08 05:31:46;;;;;;;;;;;18.10;99.90;;;;;;5028058;28;20395;-67
2022/09/08 05:34:12;;;;;;;;;;;18.00;99.90;;;;;;5029203;28;19944;-69
2022/09/08 05:36:39;;;;;;;;;;;18.00;99.90;;;;;;5029552;28;19959;-67
2022/09/08 05:39:06;;;;;;;;;;;17.90;99.90;;;;;;5029463;28;19909;-68
2022/09/08 05:41:34;;;;;;;;;;;17.80;99.90;;;;;;5029482;28;19909;-68
2022/09/08 05:44:00;;;;;;;;;;;17.80;99.90;;;;;;5029115;28;19935;-67
2022/09/08 05:46:27;;;;;;;;;;;17.80;99.90;;;;;;5029456;28;19984;-69
2022/09/08 05:48:57;;;;;;;;;;;17.70;99.90;;;;;;5029277;28;19913;-67
2022/09/08 05:51:24;;;;;;;;;;;17.80;99.90;;;;;;5029196;28;19986;-68
2022/09/08 05:53:51;;;;;;;;;;;17.70;99.90;;;;;;5028262;28;19951;-69
2022/09/08 05:56:18;;;;;;;;;;;17.70;99.90;;;;;;5029323;28;20280;-68
2022/09/08 05:58:57;;;;;;;;;;;17.70;99.90;;;;;;5028995;28;19999;-68
2022/09/08 06:01:24;;;;;;;;;;;17.60;99.90;;;;;;5029327;28;19909;-68
2022/09/08 06:03:52;;;;;;;;;;;17.50;99.90;;;;;;5028715;28;20000;-69
2022/09/08 06:06:18;;;;;;;;;;;17.40;99.90;;;;;;5029163;28;20305;-68
2022/09/08 06:08:45;;;;;;;;;;;17.50;99.90;;;;;;5060674;27;20294;-69
2022/09/08 06:11:12;;;;;;;;;;;17.50;99.90;;;;;;5029201;28;19928;-67
2022/09/08 06:13:39;;;;;;;;;;;17.50;99.90;;;;;;5028314;28;19956;-68
2022/09/08 06:16:07;;;;;;;;;;;17.50;99.90;;;;;;5028699;28;19962;-67
2022/09/08 06:18:35;;;;;;;;;;;17.60;99.90;;;;;;5028783;28;19951;-69
2022/09/08 06:21:08;;;;;;;;;;;17.60;99.90;;;;;;5028963;28;19917;-67
2022/09/08 06:23:36;;;;;;;;;;;17.50;99.90;;;;;;5028956;28;20393;-68
2022/09/08 06:26:21;;;;;;;;;;;17.50;99.90;;;;;;5028964;28;19983;-68
2022/09/08 06:28:55;;;;;;;;;;;17.40;99.90;;;;;;5028935;28;20379;-67
2022/09/08 06:31:26;;;;;;;;;;;17.30;99.90;;;;;;5028957;28;19925;-66
2022/09/08 06:33:54;;;;;;;;;;;17.30;99.90;;;;;;5028435;28;20384;-67
2022/09/08 06:36:23;;;;;;;;;;;17.30;99.90;;;;;;5028759;28;19943;-69
2022/09/08 06:38:53;;;;;;;;;;;17.30;99.90;;;;;;5028552;28;20368;-67
2022/09/08 06:41:30;;;;;;;;;;;17.20;99.90;;;;;;5028411;28;19992;-66
2022/09/08 06:44:05;;;;;;;;;;;17.30;99.90;;;;;;5027968;28;19913;-69
2022/09/08 06:46:33;;;;;;;;;;;17.20;99.90;;;;;;5060563;27;19994;-67
2022/09/08 06:49:00;;;;;;;;;;;17.20;99.90;;;;;;5028617;28;19962;-67
2022/09/08 06:51:30;;;;;;;;;;;17.20;99.90;;;;;;5026663;28;19990;-67
2022/09/08 06:54:09;;;;;;;;;;;17.20;99.90;;;;;;5025955;28;19921;-67
2022/09/08 06:56:41;;;;;;;;;;;17.10;99.90;;;;;;5026333;28;19913;-67
2022/09/08 06:59:10;;;;;;;;;;;17.10;99.90;;;;;;5026424;28;19914;-67
2022/09/08 07:01:43;;;;;;;;;;;17.10;99.90;;;;;;5026292;28;19995;-67
2022/09/08 07:04:30;;;;;;;;;;;17.10;99.90;;;;;;5025724;28;20267;-66
2022/09/08 07:07:11;;;;;;;;;;;17.10;99.90;;;;;;5029432;28;19913;-66
2022/09/08 07:09:43;;;;;;;;;;;17.10;99.90;;;;;;5029184;28;19925;-66
2022/09/08 07:12:16;;;;;;;;;;;17.00;99.90;;;;;;5028942;28;19985;-67
2022/09/08 07:15:02;;;;;;;;;;;17.00;99.90;;;;;;5029752;28;19942;-67
2022/09/08 07:17:41;;;;;;;;;;;17.10;99.90;;;;;;5029243;28;20330;-68
2022/09/08 07:20:11;;;;;;;;;;;17.00;99.90;;;;;;5029612;28;19913;-68
2022/09/08 07:22:50;;;;;;;;;;;17.00;99.90;;;;;;5029083;28;19958;-67
2022/09/08 07:25:21;;;;;;;;;;;17.00;99.90;;;;;;5029578;28;19909;-67
2022/09/08 07:27:52;;;;;;;;;;;17.00;99.90;;;;;;5029366;28;19955;-68
2022/09/08 07:30:19;;;;;;;;;;;17.00;99.90;;;;;;5029006;28;20364;-68
2022/09/08 07:32:56;;;;;;;;;;;17.00;99.90;;;;;;5029013;28;19940;-67
2022/09/08 07:35:22;;;;;;;;;;;17.00;99.90;;;;;;5029382;28;19917;-68
2022/09/08 07:37:51;;;;;;;;;;;16.90;99.90;;;;;;5028897;28;20256;-68
2022/09/08 07:40:19;;;;;;;;;;;16.90;99.90;;;;;;5029089;28;19955;-68
2022/09/08 07:42:52;;;;;;;;;;;16.90;99.90;;;;;;5028645;28;19923;-67
2022/09/08 07:45:18;;;;;;;;;;;16.90;99.90;;;;;;5028821;28;19917;-68
2022/09/08 07:47:45;;;;;;;;;;;16.90;99.90;;;;;;5028873;28;19910;-67
2022/09/08 07:50:12;;;;;;;;;;;16.90;99.90;;;;;;5029040;28;19936;-67
2022/09/08 07:52:57;;;;;;;;;;;16.80;99.90;;;;;;5028868;28;19913;-67
2022/09/08 07:55:24;;;;;;;;;;;16.80;99.90;;;;;;5029018;28;20371;-68
2022/09/08 07:58:03;;;;;;;;;;;16.80;99.90;;;;;;5028465;28;19920;-68
2022/09/08 08:00:38;;;;;;;;;;;16.80;99.90;;;;;;5028931;28;20029;-66
2022/09/08 08:03:09;;;;;;;;;;;16.70;99.90;;;;;;5028610;28;20324;-68
2022/09/08 08:05:41;;;;;;;;;;;16.80;99.90;;;;;;5028752;28;19978;-67
2022/09/08 08:08:21;;;;;;;;;;;16.70;99.90;;;;;;5028773;28;19967;-67
2022/09/08 08:11:10;;;;;;;;;;;16.80;99.90;;;;;;5028118;28;19931;-68
2022/09/08 08:13:49;;;;;;;;;;;16.70;99.90;;;;;;5027917;28;19920;-68
2022/09/08 08:16:20;;;;;;;;;;;16.70;99.90;;;;;;5028383;28;19912;-68
2022/09/08 08:18:54;;;;;;;;;;;16.70;99.90;;;;;;5028679;28;20280;-68
2022/09/08 08:21:24;;;;;;;;;;;16.70;99.90;;;;;;5028500;28;19963;-68
2022/09/08 08:24:17;;;;;;;;;;;16.70;99.90;;;;;;5027692;28;19913;-67
2022/09/08 08:27:15;;;;;;;;;;;16.70;99.90;;;;;;5025344;28;19917;-68
2022/09/08 08:29:45;;;;;;;;;;;16.70;99.90;;;;;;4994486;28;19921;-69
2022/09/08 08:32:12;;;;;;;;;;;16.70;99.90;;;;;;5027963;28;19921;-68
2022/09/08 08:34:46;;;;;;;;;;;16.70;99.90;;;;;;5028554;28;20028;-67
2022/09/08 08:37:17;;;;;;;;;;;16.70;99.90;;;;;;5028053;28;19971;-68
2022/09/08 08:39:45;;;;;;;;;;;16.70;99.90;;;;;;5028402;28;20340;-68
2022/09/08 08:42:12;;;;;;;;;;;16.70;99.90;;;;;;5027728;28;19928;-67
2022/09/08 08:44:48;;;;;;;;;;;16.70;99.90;;;;;;5028390;28;19951;-67
2022/09/08 08:47:33;;;;;;;;;;;16.80;99.90;;;;;;5060218;28;19909;-68
2022/09/08 08:50:17;;;;;;;;;;;16.70;99.90;;;;;;5027666;28;19924;-66
2022/09/08 08:53:01;;;;;;;;;;;16.70;99.90;;;;;;5028044;28;20008;-66
2022/09/08 08:55:31;;;;;;;;;;;16.70;99.90;;;;;;5028120;28;19958;-67
2022/09/08 08:58:10;;;;;;;;;;;16.80;99.90;;;;;;5059717;27;19921;-68
2022/09/08 09:00:44;;;;;;;;;;;16.70;99.90;;;;;;5028136;28;19920;-68
2022/09/08 09:03:29;;;;;;;;;;;16.70;99.90;;;;;;5027361;28;19920;-67
2022/09/08 09:06:01;;;;;;;;;;;16.70;99.90;;;;;;5026211;28;20551;-66
2022/09/08 09:08:34;;;;;;;;;;;16.70;99.90;;;;;;5027105;28;20286;-69
2022/09/08 09:11:08;;;;;;;;;;;16.70;99.90;;;;;;5029577;28;19927;-68
2022/09/08 09:13:49;;;;;;;;;;;16.70;99.90;;;;;;5029101;28;19913;-67
2022/09/08 09:16:34;;;;;;;;;;;16.70;99.90;;;;;;5029480;28;20004;-67
2022/09/08 09:19:16;;;;;;;;;;;16.70;99.90;;;;;;5029505;28;20392;-67
2022/09/08 09:21:54;;;;;;;;;;;16.70;99.90;;;;;;5029216;28;19961;-67
2022/09/08 09:24:28;;;;;;;;;;;16.70;99.90;;;;;;5029551;28;19913;-67
2022/09/08 09:26:54;;;;;;;;;;;16.80;99.90;;;;;;5029480;28;19916;-67
2022/09/08 09:29:25;;;;;;;;;;;16.70;99.90;;;;;;5028428;28;19954;-67
2022/09/08 09:31:58;;;;;;;;;;;16.80;99.90;;;;;;5028896;28;19913;-66
2022/09/08 09:34:40;;;;;;;;;;;16.80;99.90;;;;;;5029361;28;19909;-67
2022/09/08 09:37:20;;;;;;;;;;;16.80;99.90;;;;;;5029611;28;20031;-67
2022/09/08 09:40:05;;;;;;;;;;;16.80;99.90;;;;;;5029203;28;19969;-67
2022/09/08 09:42:34;;;;;;;;;;;16.80;99.90;;;;;;5028941;28;19913;-67
2022/09/08 09:45:18;;;;;;;;;;;16.80;99.90;;;;;;5029353;28;19970;-67
2022/09/08 09:48:09;;;;;;;;;;;16.80;99.90;;;;;;5029177;28;20303;-67
2022/09/08 09:50:44;;;;;;;;;;;16.80;99.90;;;;;;5029079;28;20377;-67
2022/09/08 09:53:11;;;;;;;;;;;16.80;99.90;;;;;;5028972;28;20256;-67
2022/09/08 09:55:44;;;;;;;;;;;16.80;99.90;;;;;;5028683;28;20260;-68
2022/09/08 09:58:20;;;;;;;;;;;16.80;99.90;;;;;;5028923;28;20422;-67
2022/09/08 10:00:49;;;;;;;;;;;16.80;99.90;;;;;;5029014;28;20004;-67
2022/09/08 10:03:34;;;;;;;;;;;16.80;99.90;;;;;;5028707;28;19913;-67
2022/09/08 10:06:33;;;;;;;;;;;16.80;99.90;;;;;;5029012;28;19932;-67
2022/09/08 10:09:18;;;;;;;;;;;16.80;99.90;;;;;;5017199;28;20428;-67
2022/09/08 10:11:47;;;;;;;;;;;16.80;99.90;;;;;;5028524;28;19923;-67
2022/09/08 10:14:23;;;;;;;;;;;16.80;99.90;;;;;;5028863;28;19909;-67
2022/09/08 10:16:59;;;;;;;;;;;16.80;99.90;;;;;;5028837;28;19913;-67
2022/09/08 10:19:41;;;;;;;;;;;16.80;99.90;;;;;;5028720;28;19964;-68
2022/09/08 10:22:23;;;;;;;;;;;16.80;99.90;;;;;;5028405;28;19986;-67
2022/09/08 10:24:50;;;;;;;;;;;16.80;99.90;;;;;;5028916;28;20019;-67
2022/09/08 10:27:28;;;;;;;;;;;16.80;99.90;;;;;;5028643;28;20371;-67
2022/09/08 10:29:55;;;;;;;;;;;16.70;99.90;;;;;;5028471;28;19917;-68
2022/09/08 10:32:24;;;;;;;;;;;16.80;99.90;;;;;;5028343;28;19913;-68
2022/09/08 10:35:07;;;;;;;;;;;16.70;99.90;;;;;;5028707;28;19909;-68
2022/09/08 10:37:40;;;;;;;;;;;16.70;99.90;;;;;;5028703;28;19982;-67
2022/09/08 10:40:26;;;;;;;;;;;16.70;99.90;;;;;;5030501;28;19909;-67
2022/09/08 10:42:53;;;;;;;;;;;16.70;99.90;;;;;;5031705;28;20363;-67
2022/09/08 10:45:23;;;;;;;;;;;16.70;99.90;;;;;;5031980;28;19913;-67
2022/09/08 10:47:58;;;;;;;;;;;16.80;99.90;;;;;;5063609;28;20287;-67
2022/09/08 10:50:28;;;;;;;;;;;16.80;99.90;;;;;;5031819;28;19921;-67
2022/09/08 10:53:04;;;;;;;;;;;16.80;99.90;;;;;;5031643;28;19920;-67
2022/09/08 10:55:38;;;;;;;;;;;16.80;99.90;;;;;;5031881;28;19910;-67
2022/09/08 10:58:08;;;;;;;;;;;16.70;99.90;;;;;;5031818;28;20296;-67
2022/09/08 11:00:44;;;;;;;;;;;16.70;99.90;;;;;;5031792;28;20025;-67
2022/09/08 11:03:23;;;;;;;;;;;16.70;99.90;;;;;;5031610;28;19913;-67
2022/09/08 11:06:09;;;;;;;;;;;16.60;99.90;;;;;;5063490;27;19981;-67
2022/09/08 11:08:39;;;;;;;;;;;16.40;99.90;;;;;;5031558;28;19909;-67
2022/09/08 11:11:36;;;;;;;;;;;16.40;99.90;;;;;;5031553;28;19921;-67
2022/09/08 11:14:21;;;;;;;;;;;16.40;99.90;;;;;;4959870;28;19920;-68
2022/09/08 11:17:07;;;;;;;;;;;16.40;99.90;;;;;;5011901;28;19913;-69
2022/09/08 11:19:36;;;;;;;;;;;16.50;99.90;;;;;;5011657;28;19996;-68
2022/09/08 11:22:09;;;;;;;;;;;16.50;99.90;;;;;;5010801;28;19917;-68
2022/09/08 11:24:41;;;;;;;;;;;16.50;99.90;;;;;;5011796;28;19945;-68
2022/09/08 11:27:23;;;;;;;;;;;16.50;99.90;;;;;;5011744;28;20316;-68
2022/09/08 11:30:07;;;;;;;;;;;16.50;99.90;;;;;;5011680;28;19944;-68
2022/09/08 11:32:36;;;;;;;;;;;16.50;99.90;;;;;;5011137;28;19909;-68
2022/09/08 11:35:10;;;;;;;;;;;16.50;99.90;;;;;;5011689;28;20376;-68
2022/09/08 11:37:42;;;;;;;;;;;16.50;99.90;;;;;;5010707;28;19909;-68
2022/09/08 11:40:27;;;;;;;;;;;16.50;99.90;;;;;;5011152;28;19918;-67
2022/09/08 11:43:11;;;;;;;;;;;16.60;99.90;;;;;;5010952;28;20288;-67
2022/09/08 11:45:49;;;;;;;;;;;16.50;99.90;;;;;;5011085;28;19910;-67
2022/09/08 11:48:25;;;;;;;;;;;16.50;99.90;;;;;;5011257;28;20000;-67
2022/09/08 11:51:00;;;;;;;;;;;16.50;99.90;;;;;;5010099;28;19917;-67
2022/09/08 11:53:30;;;;;;;;;;;16.60;99.90;;;;;;5010879;28;19952;-66
2022/09/08 11:56:13;;;;;;;;;;;16.50;99.90;;;;;;5010700;28;19920;-66
2022/09/08 11:58:55;;;;;;;;;;;16.50;99.90;;;;;;5011049;28;19935;-66
2022/09/08 12:01:28;;;;;;;;;;;16.60;99.90;;;;;;5011172;28;19924;-66
2022/09/08 12:04:00;;;;;;;;;;;16.50;99.90;;;;;;5010507;28;19928;-66
2022/09/08 12:06:37;;;;;;;;;;;16.50;99.90;;;;;;5010389;28;19913;-67
2022/09/08 12:09:12;;;;;;;;;;;16.40;99.90;;;;;;5010952;28;19971;-66
2022/09/08 12:11:45;;;;;;;;;;;16.40;99.90;;;;;;5011981;28;19924;-67
2022/09/08 12:14:35;;;;;;;;;;;16.40;99.90;;;;;;5030714;28;19965;-67
2022/09/08 12:17:13;;;;;;;;;;;16.30;99.90;;;;;;5022575;28;19917;-67
2022/09/08 12:19:58;;;;;;;;;;;16.30;99.90;;;;;;5030424;28;20423;-68
2022/09/08 12:22:37;;;;;;;;;;;16.10;99.90;;;;;;5029714;28;20016;-67
2022/09/08 12:25:11;;;;;;;;;;;16.10;99.90;;;;;;5030595;28;19954;-67
2022/09/08 12:27:46;;;;;;;;;;;16.00;99.90;;;;;;5030357;28;20274;-66
2022/09/08 12:30:20;;;;;;;;;;;15.90;99.90;;;;;;5030468;28;19917;-67
2022/09/08 12:32:47;;;;;;;;;;;15.90;99.90;;;;;;5030149;28;19913;-67
2022/09/08 12:35:14;;;;;;;;;;;15.80;99.90;;;;;;5062007;27;20390;-68
2022/09/08 12:37:58;;;;;;;;;;;15.80;99.90;;;;;;5030100;28;20319;-67
2022/09/08 12:40:27;;;;;;;;;;;15.80;99.90;;;;;;5030383;28;19909;-66
2022/09/08 12:43:03;;;;;;;;;;;15.70;99.90;;;;;;5030119;28;19918;-66
2022/09/08 12:45:59;;;;;;;;;;;15.70;99.90;;;;;;5030351;28;20367;-66
2022/09/08 12:48:38;;;;;;;;;;;15.70;99.90;;;;;;4976494;28;20393;-66
2022/09/08 12:51:04;;;;;;;;;;;15.70;99.90;;;;;;5029557;28;19917;-66
2022/09/08 12:53:35;;;;;;;;;;;15.70;99.90;;;;;;5029906;28;19974;-66
2022/09/08 12:56:22;;;;;;;;;;;15.70;99.90;;;;;;5030097;28;19918;-67
2022/09/08 12:58:55;;;;;;;;;;;15.70;99.90;;;;;;5030032;28;19909;-67
2022/09/08 13:01:22;;;;;;;;;;;15.70;99.90;;;;;;5030131;28;20422;-67
2022/09/08 13:03:51;;;;;;;;;;;15.70;99.90;;;;;;5028497;28;19910;-68
2022/09/08 13:06:37;;;;;;;;;;;15.70;99.90;;;;;;5028026;28;20338;-67
2022/09/08 13:09:08;;;;;;;;;;;15.80;99.90;;;;;;5029550;28;19993;-68
2022/09/08 13:11:44;;;;;;;;;;;15.80;99.90;;;;;;5029261;28;19925;-67
2022/09/08 13:14:12;;;;;;;;;;;15.80;99.90;;;;;;5029898;28;20369;-67
2022/09/08 13:16:41;;;;;;;;;;;15.80;99.90;;;;;;5029795;28;20380;-69
2022/09/08 13:19:11;;;;;;;;;;;15.80;99.90;;;;;;5029779;28;20432;-68
2022/09/08 13:21:41;;;;;;;;;;;15.80;99.90;;;;;;5028648;28;20333;-69
2022/09/08 13:24:12;;;;;;;;;;;15.90;99.90;;;;;;5029525;28;20000;-67
2022/09/08 13:26:38;;;;;;;;;;;15.80;99.90;;;;;;5029317;28;19954;-69
2022/09/08 13:29:20;;;;;;;;;;;15.80;99.90;;;;;;5029712;28;19999;-69
2022/09/08 13:31:50;;;;;;;;;;;15.90;99.90;;;;;;5029132;28;20030;-67
2022/09/08 13:34:26;;;;;;;;;;;15.90;99.90;;;;;;5029702;28;20324;-69
2022/09/08 13:37:06;;;;;;;;;;;15.90;99.90;;;;;;5029738;28;19913;-69
2022/09/08 13:39:51;;;;;;;;;;;15.90;99.90;;;;;;5029442;28;20329;-68
2022/09/08 13:42:26;;;;;;;;;;;15.90;99.90;;;;;;5029065;28;19913;-68
2022/09/08 13:45:05;;;;;;;;;;;15.90;99.90;;;;;;5029548;28;19909;-70
2022/09/08 13:47:43;;;;;;;;;;;15.90;99.90;;;;;;5029604;28;20566;-69
2022/09/08 13:50:29;;;;;;;;;;;15.90;99.90;;;;;;5029322;28;19925;-68
2022/09/08 13:53:13;;;;;;;;;;;15.90;99.90;;;;;;5028991;28;19909;-69
2022/09/08 13:56:04;;;;;;;;;;;15.90;99.90;;;;;;5029013;28;19981;-69
2022/09/08 13:58:37;;;;;;;;;;;15.90;99.90;;;;;;5031418;28;20013;-69
2022/09/08 14:01:27;;;;;;;;;;;15.90;99.90;;;;;;5029213;28;19910;-68
2022/09/08 14:03:58;;;;;;;;;;;15.90;99.90;;;;;;5028957;28;19913;-67
2022/09/08 14:06:45;;;;;;;;;;;15.90;99.90;;;;;;5029182;28;19916;-70
2022/09/08 14:09:12;;;;;;;;;;;15.90;99.90;;;;;;5028743;28;19921;-69
2022/09/08 14:11:38;;;;;;;;;;;15.90;99.90;;;;;;5026911;28;19944;-70
2022/09/08 14:14:11;;;;;;;;;;;15.90;99.90;;;;;;5011001;28;19916;-68
2022/09/08 14:16:38;;;;;;;;;;;15.90;99.90;;;;;;5015930;28;19909;-68
2022/09/08 14:19:11;;;;;;;;;;;15.90;99.90;;;;;;5016100;28;20421;-68
2022/09/08 14:21:56;;;;;;;;;;;15.90;99.90;;;;;;5015293;28;19909;-70
2022/09/08 14:24:32;;;;;;;;;;;15.90;99.90;;;;;;5015757;28;19917;-69
2022/09/08 14:26:58;;;;;;;;;;;15.80;99.90;;;;;;5015877;28;20002;-68
2022/09/08 14:29:31;;;;;;;;;;;15.90;99.90;;;;;;5015771;28;19910;-68
2022/09/08 14:32:37;;;;;;;;;;;15.80;99.90;;;;;;5015286;28;19928;-69
2022/09/08 14:35:03;;;;;;;;;;;15.90;99.90;;;;;;5096457;28;19912;-68
2022/09/08 14:37:31;;;;;;;;;;;15.90;99.90;;;;;;5096389;28;19957;-68
2022/09/08 14:40:19;;;;;;;;;;;15.80;99.90;;;;;;5056157;28;20253;-68
2022/09/08 14:43:04;;;;;;;;;;;15.80;99.90;;;;;;5015274;28;19913;-68
2022/09/08 14:45:51;;;;;;;;;;;15.80;99.90;;;;;;5015630;28;19948;-68
2022/09/08 14:48:19;;;;;;;;;;;15.80;99.90;;;;;;5015680;28;19946;-68
2022/09/08 14:51:01;;;;;;;;;;;15.90;99.90;;;;;;5015445;28;20395;-68